Terminal Aerodrome Forecast
Issued by NWS

Home | Current Version | Previous Version | Text Only | Print | Product List | Glossary On
Versions: 1 2 3 4 5 6 7 8 9 10 11 12 13
000
FTUS46 KSEW 012300
TAFBFI
TAF
KBFI 012320Z 0200/0224 23005KT P6SM OVC120
     FM020300 34005KT P6SM -RA BKN050 OVC080
     FM020900 VRB03KT P6SM BKN030 OVC045
     FM021500 VRB03KT P6SM BKN035
     FM021800 34009KT P6SM BKN050=

USA.gov is the U.S. government's official web portal to all federal, state and local government web resources and services.